RJST(METAR)
07/27 18:00
METAR RJST 270900Z 03014KT 9999 FEW008 SCT020 BKN080 25/21 Q1000 RMK
1ST008 4CU020 6AC080 A2954=
戻る
トップページへ戻る
IMOC Co,.Ltd.